createdAt,value
2023-03-14T00:01:46.081Z,6.75
2023-03-14T00:04:48.621Z,6.76
2023-03-14T00:07:50.683Z,6.73
2023-03-14T00:10:53.081Z,6.62
2023-03-14T00:13:55.354Z,6.55
2023-03-14T00:16:58.000Z,6.51
2023-03-14T00:20:05.561Z,6.53
2023-03-14T00:23:08.052Z,6.52
2023-03-14T00:26:19.017Z,6.57
2023-03-14T00:29:21.405Z,6.65
2023-03-14T00:32:24.498Z,6.62
2023-03-14T00:35:26.962Z,6.53
2023-03-14T00:38:30.584Z,6.61
2023-03-14T00:41:33.649Z,6.55
2023-03-14T00:44:36.258Z,6.54
2023-03-14T00:47:46.481Z,6.79
2023-03-14T00:50:49.211Z,6.90
2023-03-14T00:53:51.653Z,6.97
2023-03-14T00:56:53.906Z,6.96
2023-03-14T00:59:56.926Z,6.92
2023-03-14T01:02:59.745Z,6.91
2023-03-14T01:06:29.315Z,6.90
2023-03-14T01:09:31.508Z,6.84
2023-03-14T01:12:33.984Z,6.90
2023-03-14T01:15:39.107Z,6.82
2023-03-14T01:18:44.720Z,6.80
2023-03-14T01:21:46.939Z,6.75
2023-03-14T01:24:49.420Z,6.70
2023-03-14T01:27:51.692Z,6.60
2023-03-14T01:30:54.559Z,6.63
2023-03-14T01:33:57.119Z,6.58
2023-03-14T01:36:59.881Z,6.52
2023-03-14T01:40:04.173Z,6.54
2023-03-14T01:43:14.745Z,6.71
2023-03-14T01:46:23.245Z,6.68
2023-03-14T01:49:32.552Z,6.73
2023-03-14T01:52:42.932Z,6.75
2023-03-14T01:55:45.663Z,6.70
2023-03-14T01:58:52.503Z,6.63
2023-03-14T02:01:56.616Z,6.64
2023-03-14T02:05:00.424Z,6.75
2023-03-14T02:08:04.777Z,6.80
2023-03-14T02:11:09.285Z,6.76
2023-03-14T02:14:22.756Z,6.70
2023-03-14T02:17:27.665Z,6.61
2023-03-14T02:20:45.911Z,6.51
2023-03-14T02:24:12.147Z,6.48
2023-03-14T02:27:17.261Z,6.50
2023-03-14T02:30:28.912Z,6.52
2023-03-14T02:33:31.767Z,6.53
2023-03-14T02:36:35.089Z,6.52
2023-03-14T02:39:45.541Z,6.48
2023-03-14T02:42:48.369Z,6.61
2023-03-14T02:45:51.865Z,6.64
2023-03-14T02:49:15.221Z,6.72
2023-03-14T02:52:17.425Z,6.62
2023-03-14T02:55:24.402Z,6.65
2023-03-14T02:58:28.596Z,6.69
2023-03-14T03:01:32.502Z,6.77
2023-03-14T03:04:34.804Z,6.95
2023-03-14T03:07:37.330Z,7.05
2023-03-14T03:10:42.870Z,7.15
2023-03-14T03:13:45.410Z,7.17
2023-03-14T03:16:48.187Z,7.29
2023-03-14T03:19:50.703Z,7.37
2023-03-14T03:22:53.121Z,7.38
2023-03-14T03:25:55.548Z,7.36
2023-03-14T03:28:57.941Z,7.33
2023-03-14T03:32:00.509Z,7.27
2023-03-14T03:35:04.566Z,7.12
2023-03-14T03:38:08.181Z,6.94
2023-03-14T03:41:10.716Z,6.84
2023-03-14T03:44:13.742Z,6.74
2023-03-14T03:47:16.496Z,6.78
2023-03-14T03:50:19.152Z,6.61
2023-03-14T03:53:32.870Z,6.41
2023-03-14T03:56:36.081Z,6.25
2023-03-14T03:59:41.039Z,6.29
2023-03-14T04:02:43.925Z,6.16
2023-03-14T04:05:46.654Z,6.16
2023-03-14T04:08:49.196Z,6.08
2023-03-14T04:11:52.942Z,5.89
2023-03-14T04:14:56.778Z,5.81
2023-03-14T04:17:59.969Z,5.72
2023-03-14T04:21:02.110Z,5.69
2023-03-14T04:24:05.336Z,5.57
2023-03-14T04:27:08.030Z,5.74
2023-03-14T04:30:11.214Z,5.80
2023-03-14T04:33:18.205Z,5.79
2023-03-14T04:36:21.894Z,5.80
2023-03-14T04:39:24.489Z,5.64
2023-03-14T04:42:27.369Z,5.60
2023-03-14T04:45:29.990Z,5.64
2023-03-14T04:48:32.700Z,5.60
2023-03-14T04:51:35.402Z,5.77
2023-03-14T04:54:37.947Z,6.03
2023-03-14T04:57:40.716Z,6.24
2023-03-14T05:00:44.181Z,6.50
2023-03-14T05:03:47.105Z,6.68
2023-03-14T05:06:51.110Z,6.82
2023-03-14T05:09:56.448Z,6.79
2023-03-14T05:12:59.554Z,6.87
2023-03-14T05:16:07.175Z,7.00
2023-03-14T05:19:12.636Z,7.00
2023-03-14T05:22:15.188Z,7.13
2023-03-14T05:25:17.938Z,7.19
2023-03-14T05:28:21.663Z,7.30
2023-03-14T05:31:24.291Z,7.43
2023-03-14T05:34:26.863Z,7.57
2023-03-14T05:37:30.025Z,7.70
2023-03-14T05:40:32.710Z,7.89
2023-03-14T05:43:35.472Z,8.16
2023-03-14T05:46:38.054Z,8.72
2023-03-14T05:49:41.100Z,9.58
2023-03-14T05:52:43.952Z,10.68
2023-03-14T05:55:46.984Z,11.96
2023-03-14T05:58:49.645Z,13.41
2023-03-14T06:01:52.542Z,15.66
2023-03-14T06:04:55.324Z,19.16
2023-03-14T06:07:57.513Z,19.48
2023-03-14T06:11:04.314Z,19.98
2023-03-14T06:14:06.795Z,19.10
2023-03-14T06:17:09.544Z,19.35
2023-03-14T06:20:13.380Z,20.31
2023-03-14T06:23:16.130Z,20.41
2023-03-14T06:26:18.486Z,19.99
2023-03-14T06:29:21.046Z,19.30
2023-03-14T06:32:23.670Z,18.65
2023-03-14T06:35:27.181Z,16.20
2023-03-14T06:38:29.771Z,13.46
2023-03-14T06:41:33.760Z,12.49
2023-03-14T06:44:36.454Z,12.39
2023-03-14T06:47:39.702Z,12.19
2023-03-14T06:50:43.119Z,11.66
2023-03-14T06:53:45.619Z,11.31
2023-03-14T06:56:49.826Z,11.07
2023-03-14T06:59:52.500Z,11.14
2023-03-14T07:02:54.935Z,10.85
2023-03-14T07:05:57.871Z,10.87
2023-03-14T07:09:01.782Z,11.06
2023-03-14T07:12:06.009Z,11.08
2023-03-14T07:15:18.065Z,11.11
2023-03-14T07:18:22.750Z,11.40
2023-03-14T07:21:25.550Z,11.18
2023-03-14T07:24:28.206Z,11.72
2023-03-14T07:27:30.442Z,11.71
2023-03-14T07:30:34.610Z,11.55
2023-03-14T07:33:37.852Z,11.83
2023-03-14T07:36:41.100Z,11.95
2023-03-14T07:39:43.443Z,12.15
2023-03-14T07:42:47.462Z,12.01
2023-03-14T07:45:51.301Z,11.86
2023-03-14T07:48:55.039Z,12.27
2023-03-14T07:51:57.269Z,12.20
2023-03-14T07:54:59.809Z,12.41
2023-03-14T07:58:02.766Z,12.55
2023-03-14T08:01:05.518Z,12.54
2023-03-14T08:04:08.076Z,12.63
2023-03-14T08:07:10.560Z,12.79
2023-03-14T08:10:17.905Z,12.94
2023-03-14T08:13:20.298Z,13.35
2023-03-14T08:16:23.434Z,13.47
2023-03-14T08:19:25.831Z,13.46
2023-03-14T08:22:28.552Z,13.76
2023-03-14T08:25:31.530Z,13.69
2023-03-14T08:28:34.179Z,13.84
2023-03-14T08:31:36.773Z,14.01
2023-03-14T08:34:39.909Z,13.98
2023-03-14T08:37:42.441Z,13.96
2023-03-14T08:40:57.586Z,14.31
2023-03-14T08:44:00.009Z,14.42
2023-03-14T08:47:02.712Z,14.25
2023-03-14T08:50:06.662Z,14.14
2023-03-14T08:53:09.831Z,14.04
2023-03-14T08:56:12.243Z,14.09
2023-03-14T08:59:14.833Z,14.12
2023-03-14T09:02:17.029Z,14.01
2023-03-14T09:05:19.453Z,14.09
2023-03-14T09:08:21.680Z,14.18
2023-03-14T09:11:24.233Z,14.11
2023-03-14T09:14:26.535Z,14.20
2023-03-14T09:17:29.161Z,14.32
2023-03-14T09:20:31.391Z,14.49
2023-03-14T09:23:34.080Z,14.57
2023-03-14T09:26:36.436Z,14.66
2023-03-14T09:29:38.949Z,14.80
2023-03-14T09:32:41.323Z,14.95
2023-03-14T09:35:44.005Z,15.07
2023-03-14T09:38:46.284Z,15.40
2023-03-14T09:41:51.684Z,15.38
2023-03-14T10:05:59.700Z,18.98
2023-03-14T10:09:03.533Z,19.08
2023-03-14T10:12:10.427Z,19.23
2023-03-14T10:15:18.865Z,19.74
2023-03-14T10:18:22.821Z,19.87
2023-03-14T10:21:30.289Z,19.82
2023-03-14T10:24:35.708Z,20.65
2023-03-14T10:27:38.236Z,20.66
2023-03-14T10:30:45.797Z,20.75
2023-03-14T10:34:03.980Z,20.59
2023-03-14T10:37:22.763Z,20.64
2023-03-14T10:40:30.732Z,19.98
2023-03-14T10:43:36.032Z,19.94
2023-03-14T10:46:38.644Z,20.24
2023-03-14T10:49:57.140Z,20.33
2023-03-14T10:53:07.235Z,20.06
2023-03-14T10:56:23.232Z,20.04
2023-03-14T10:59:30.330Z,20.27
2023-03-14T11:03:04.800Z,20.91
2023-03-14T11:06:28.454Z,20.89
2023-03-14T11:09:51.591Z,21.50
2023-03-14T11:13:19.091Z,21.38
2023-03-14T11:16:35.367Z,21.09
2023-03-14T11:19:57.046Z,21.65
2023-03-14T11:23:15.428Z,22.07
2023-03-14T11:26:26.834Z,23.05
2023-03-14T11:29:41.358Z,23.14
2023-03-14T11:32:49.489Z,22.24
2023-03-14T11:36:07.655Z,22.04
2023-03-14T11:39:16.944Z,22.49
2023-03-14T11:42:20.188Z,22.72
2023-03-14T11:45:34.336Z,22.20
2023-03-14T11:48:46.706Z,22.00
2023-03-14T11:51:53.101Z,22.24
2023-03-14T11:55:01.690Z,22.06
2023-03-14T11:58:28.982Z,21.43
2023-03-14T12:01:59.023Z,21.78
2023-03-14T12:05:33.481Z,22.10
2023-03-14T12:08:41.764Z,22.73
2023-03-14T12:12:00.190Z,22.26
2023-03-14T12:15:04.908Z,22.26
2023-03-14T12:18:21.387Z,21.84
2023-03-14T12:21:35.422Z,22.69
2023-03-14T12:24:39.148Z,23.08
2023-03-14T12:27:41.374Z,22.28
2023-03-14T12:30:44.060Z,22.71
2023-03-14T12:33:46.629Z,22.67
2023-03-14T12:36:50.132Z,22.76
2023-03-14T12:40:22.122Z,23.72
2023-03-14T12:43:31.130Z,24.97
2023-03-14T12:46:33.503Z,22.86
2023-03-14T12:49:39.100Z,22.01
2023-03-14T12:52:57.803Z,21.34
2023-03-14T12:56:19.171Z,20.92
2023-03-14T12:59:31.804Z,20.52
2023-03-14T13:02:45.019Z,20.31
2023-03-14T13:05:59.548Z,20.17
2023-03-14T13:09:32.595Z,19.86
2023-03-14T13:12:48.800Z,19.66
2023-03-14T13:16:01.573Z,19.42
2023-03-14T13:19:12.696Z,19.41
2023-03-14T13:22:26.801Z,19.33
2023-03-14T13:25:36.200Z,19.28
2023-03-14T13:28:39.319Z,18.99
2023-03-14T13:31:46.618Z,19.05
2023-03-14T13:34:49.758Z,18.83
2023-03-14T13:38:16.059Z,18.56
2023-03-14T13:41:18.816Z,18.48
2023-03-14T13:44:36.951Z,18.44
2023-03-14T13:47:40.624Z,18.42
2023-03-14T13:50:55.433Z,18.39
2023-03-14T13:53:59.768Z,18.42
2023-03-14T13:57:05.128Z,18.49
2023-03-14T14:00:11.116Z,18.48
2023-03-14T14:03:15.135Z,18.54
2023-03-14T14:06:37.237Z,18.50
2023-03-14T14:09:44.669Z,18.42
2023-03-14T14:12:56.119Z,18.47
2023-03-14T14:16:02.231Z,18.39
2023-03-14T14:19:06.041Z,18.34
2023-03-14T14:22:12.552Z,18.40
2023-03-14T14:25:16.289Z,18.62
2023-03-14T14:28:25.886Z,18.80
2023-03-14T14:31:28.218Z,18.93
2023-03-14T14:34:40.323Z,18.95
2023-03-14T14:37:44.897Z,19.00
2023-03-14T14:40:50.728Z,18.85
2023-03-14T14:43:54.017Z,18.89
2023-03-14T14:47:00.100Z,18.68
2023-03-14T14:50:05.996Z,18.50
2023-03-14T14:53:43.976Z,18.43
2023-03-14T14:56:52.582Z,18.32
2023-03-14T15:00:01.143Z,18.32
2023-03-14T15:03:03.818Z,18.30
2023-03-14T15:06:06.452Z,18.10
2023-03-14T15:09:11.524Z,17.91
2023-03-14T15:12:14.204Z,17.74
2023-03-14T15:15:18.031Z,17.56
2023-03-14T15:18:20.670Z,17.49
2023-03-14T15:21:24.157Z,17.37
2023-03-14T15:24:27.120Z,17.28
2023-03-14T15:27:32.053Z,17.19
2023-03-14T15:30:34.820Z,17.23
2023-03-14T15:33:37.712Z,17.10
2023-03-14T15:36:41.230Z,17.10
2023-03-14T15:39:44.475Z,16.99
2023-03-14T15:42:47.274Z,16.93
2023-03-14T15:45:49.988Z,16.80
2023-03-14T15:48:53.353Z,16.68
2023-03-14T15:51:57.762Z,16.65
2023-03-14T15:55:01.153Z,16.57
2023-03-14T15:58:03.860Z,16.66
2023-03-14T16:01:12.479Z,16.40
2023-03-14T16:04:15.752Z,15.94
2023-03-14T16:07:18.208Z,15.50
2023-03-14T16:10:20.845Z,15.04
2023-03-14T16:13:23.267Z,14.64
2023-03-14T16:16:26.002Z,14.44
2023-03-14T16:19:29.297Z,14.21
2023-03-14T16:22:35.828Z,13.95
2023-03-14T16:25:37.999Z,13.75
2023-03-14T16:28:40.582Z,13.61
2023-03-14T16:31:43.073Z,13.56
2023-03-14T16:34:45.868Z,13.54
2023-03-14T16:37:48.076Z,13.54
2023-03-14T16:41:05.937Z,13.56
2023-03-14T16:44:08.180Z,13.53
2023-03-14T16:47:11.146Z,13.53
2023-03-14T16:50:13.776Z,13.42
2023-03-14T16:53:16.454Z,13.49
2023-03-14T16:56:18.855Z,13.44
2023-03-14T16:59:21.568Z,13.40
2023-03-14T17:02:23.825Z,13.30
2023-03-14T17:05:26.730Z,13.32
2023-03-14T17:08:29.119Z,13.17
2023-03-14T17:11:35.536Z,13.13
2023-03-14T17:14:37.844Z,13.11
2023-03-14T17:17:40.379Z,13.04
2023-03-14T17:20:42.631Z,12.85
2023-03-14T17:23:45.126Z,12.46
2023-03-14T17:26:47.350Z,12.23
2023-03-14T17:29:50.620Z,11.91
2023-03-14T17:32:52.823Z,11.73
2023-03-14T17:35:55.357Z,11.66
2023-03-14T17:38:58.613Z,11.53
2023-03-14T17:42:01.226Z,11.51
2023-03-14T17:45:03.689Z,11.43
2023-03-14T17:48:06.486Z,11.48
2023-03-14T17:51:08.874Z,11.40
2023-03-14T17:54:11.440Z,11.33
2023-03-14T17:57:13.657Z,11.20
2023-03-14T18:00:17.096Z,11.23
2023-03-14T18:03:19.572Z,11.23
2023-03-14T18:06:23.576Z,11.19
2023-03-14T18:09:26.038Z,11.28
2023-03-14T18:12:28.991Z,11.26
2023-03-14T18:15:33.826Z,11.28
2023-03-14T18:18:36.028Z,11.22
2023-03-14T18:21:40.354Z,11.23
2023-03-14T18:24:42.872Z,11.37
2023-03-14T18:27:47.430Z,11.38
2023-03-14T18:30:52.578Z,11.37
2023-03-14T18:33:57.633Z,11.43
2023-03-14T18:37:00.128Z,11.43
2023-03-14T18:40:05.154Z,11.43
2023-03-14T18:43:07.419Z,11.55
2023-03-14T18:46:11.383Z,11.56
2023-03-14T18:49:13.954Z,11.43
2023-03-14T18:52:16.417Z,11.31
2023-03-14T18:55:18.607Z,11.18
2023-03-14T18:58:25.965Z,11.11
2023-03-14T19:01:31.315Z,11.17
2023-03-14T19:04:33.935Z,11.28
2023-03-14T19:07:36.153Z,11.34
2023-03-14T19:10:38.747Z,11.38
2023-03-14T19:13:42.059Z,11.39
2023-03-14T19:16:44.658Z,11.39
2023-03-14T19:19:46.844Z,11.40
2023-03-14T19:22:49.390Z,11.43
2023-03-14T19:25:52.984Z,11.47
2023-03-14T19:28:55.997Z,11.47
2023-03-14T19:31:58.523Z,11.65
2023-03-14T19:35:01.105Z,11.69
2023-03-14T19:38:03.421Z,11.71
2023-03-14T19:41:06.015Z,11.77
2023-03-14T19:44:08.553Z,11.70
2023-03-14T19:47:10.982Z,11.80
2023-03-14T19:50:13.258Z,11.77
2023-03-14T19:53:15.711Z,11.73
2023-03-14T19:56:20.572Z,11.54
2023-03-14T19:59:23.064Z,11.44
2023-03-14T20:02:26.484Z,11.42
2023-03-14T20:05:29.831Z,11.30
2023-03-14T20:08:32.183Z,11.21
2023-03-14T20:11:40.145Z,11.15
2023-03-14T20:14:42.546Z,10.99
2023-03-14T20:17:46.858Z,10.88
2023-03-14T20:20:49.361Z,10.67
2023-03-14T20:23:51.853Z,10.58
2023-03-14T20:26:54.050Z,10.51
2023-03-14T20:29:57.350Z,10.40
2023-03-14T20:32:59.907Z,10.26
2023-03-14T20:36:02.873Z,10.13
2023-03-14T20:39:05.473Z,10.20
2023-03-14T20:42:07.987Z,10.14
2023-03-14T20:45:10.600Z,10.12
2023-03-14T20:48:13.044Z,10.10
2023-03-14T20:51:15.294Z,10.03
2023-03-14T20:54:18.317Z,9.97
2023-03-14T20:57:20.570Z,9.90
2023-03-14T21:00:23.395Z,9.96
2023-03-14T21:03:25.811Z,9.93
2023-03-14T21:06:28.726Z,9.91
2023-03-14T21:09:30.921Z,9.85
2023-03-14T21:12:33.376Z,9.77
2023-03-14T21:15:37.712Z,9.90
2023-03-14T21:18:40.174Z,9.90
2023-03-14T21:21:42.469Z,10.01
2023-03-14T21:24:45.915Z,10.02
2023-03-14T21:27:50.011Z,9.95
2023-03-14T21:30:52.822Z,10.02
2023-03-14T21:33:55.065Z,10.20
2023-03-14T21:36:57.516Z,10.21
2023-03-14T21:39:59.658Z,10.16
2023-03-14T21:43:02.113Z,10.16
2023-03-14T21:46:04.480Z,10.32
2023-03-14T21:49:07.150Z,10.31
2023-03-14T21:52:11.598Z,10.33
2023-03-14T21:55:17.527Z,10.37
2023-03-14T21:58:19.682Z,10.40
2023-03-14T22:01:25.522Z,10.46
2023-03-14T22:04:35.998Z,10.44
2023-03-14T22:07:38.691Z,10.63
2023-03-14T22:10:48.772Z,10.58
2023-03-14T22:13:50.943Z,10.64
2023-03-14T22:16:54.613Z,10.62
2023-03-14T22:19:56.922Z,10.68
2023-03-14T22:22:59.403Z,10.64
2023-03-14T22:26:01.568Z,10.50
2023-03-14T22:29:04.455Z,10.49
2023-03-14T22:32:07.903Z,10.45
2023-03-14T22:35:10.564Z,10.40
2023-03-14T22:38:12.638Z,10.38
2023-03-14T22:41:15.130Z,10.31
2023-03-14T22:44:17.275Z,10.33
2023-03-14T22:47:19.876Z,10.40
2023-03-14T22:50:22.030Z,10.37
2023-03-14T22:53:24.938Z,10.40
2023-03-14T22:56:27.163Z,10.33
2023-03-14T22:59:29.749Z,10.31
2023-03-14T23:02:32.010Z,10.32
2023-03-14T23:05:34.501Z,10.28
2023-03-14T23:08:38.004Z,10.28
2023-03-14T23:11:41.657Z,10.20
2023-03-14T23:14:43.852Z,10.13
2023-03-14T23:17:46.322Z,10.03
2023-03-14T23:20:49.631Z,9.94
2023-03-14T23:23:52.409Z,9.87
2023-03-14T23:26:54.494Z,9.78
2023-03-14T23:29:57.348Z,9.76
2023-03-14T23:32:59.555Z,9.74
2023-03-14T23:36:04.232Z,9.68
2023-03-14T23:39:08.458Z,9.63
2023-03-14T23:42:11.906Z,9.60
2023-03-14T23:45:14.300Z,9.59
2023-03-14T23:48:16.785Z,9.59
2023-03-14T23:51:18.935Z,9.58
2023-03-14T23:54:21.816Z,9.52
2023-03-14T23:57:24.040Z,9.50
